createdAt,value
2023-05-21T00:01:45.713Z,88.45
2023-05-21T00:06:47.443Z,89.38
2023-05-21T00:11:49.093Z,89.29
2023-05-21T00:16:50.945Z,89.21
2023-05-21T00:21:53.532Z,89.64
2023-05-21T00:26:56.002Z,90.45
2023-05-21T00:31:57.993Z,90.81
2023-05-21T00:37:02.721Z,90.64
2023-05-21T00:42:04.796Z,90.76
2023-05-21T00:47:07.214Z,90.52
2023-05-21T00:52:09.121Z,90.48
2023-05-21T00:57:10.906Z,90.51
2023-05-21T01:02:14.287Z,90.59
2023-05-21T01:07:16.056Z,91.00
2023-05-21T01:12:18.613Z,91.19
2023-05-21T01:17:24.324Z,91.48
2023-05-21T01:22:26.556Z,91.73
2023-05-21T01:27:28.752Z,92.36
2023-05-21T01:32:37.834Z,92.18
2023-05-21T01:38:12.091Z,92.37
2023-05-21T01:43:14.358Z,92.36
2023-05-21T01:48:17.497Z,92.85
2023-05-21T01:53:19.274Z,92.84
2023-05-21T01:58:22.784Z,93.15
2023-05-21T02:03:27.119Z,93.04
2023-05-21T02:08:29.726Z,93.10
2023-05-21T02:13:32.470Z,93.26
2023-05-21T02:18:34.209Z,93.33
2023-05-21T02:23:36.694Z,93.85
2023-05-21T02:28:38.597Z,93.72
2023-05-21T02:33:41.830Z,93.56
2023-05-21T02:38:43.939Z,93.64
2023-05-21T02:43:45.945Z,94.22
2023-05-21T02:48:47.742Z,94.71
2023-05-21T02:53:50.068Z,94.95
2023-05-21T02:58:52.144Z,94.76
2023-05-21T03:03:53.987Z,94.89
2023-05-21T03:08:58.375Z,95.09
2023-05-21T03:14:00.276Z,94.96
2023-05-21T03:19:02.219Z,94.96
2023-05-21T03:24:06.476Z,95.09
2023-05-21T03:29:08.223Z,94.68
2023-05-21T03:34:11.083Z,93.79
2023-05-21T03:39:12.954Z,93.59
2023-05-21T03:44:14.976Z,93.50
2023-05-21T03:49:31.150Z,93.83
2023-05-21T03:54:33.940Z,93.56
2023-05-21T03:59:40.343Z,93.46
2023-05-21T04:04:43.452Z,93.45
2023-05-21T04:09:45.542Z,92.93
2023-05-21T04:14:48.549Z,91.85
2023-05-21T04:19:50.306Z,91.21
2023-05-21T04:24:52.905Z,90.72
2023-05-21T04:30:00.161Z,89.93
2023-05-21T04:35:02.092Z,88.91
2023-05-21T04:40:04.246Z,87.51
2023-05-21T04:45:06.612Z,86.24
2023-05-21T04:50:12.007Z,84.76
2023-05-21T04:55:13.770Z,82.73
2023-05-21T05:00:16.509Z,81.42
2023-05-21T05:05:20.189Z,80.23
2023-05-21T05:10:22.438Z,77.78
2023-05-21T05:15:26.307Z,77.10
2023-05-21T05:20:28.165Z,73.49
2023-05-21T05:25:30.703Z,69.53
2023-05-21T05:30:33.214Z,70.26
2023-05-21T05:35:46.597Z,68.01
2023-05-21T05:40:48.351Z,68.65
2023-05-21T05:45:50.080Z,66.11
2023-05-21T05:50:54.706Z,66.19
2023-05-21T05:55:58.034Z,65.09
2023-05-21T06:00:59.800Z,64.03
2023-05-21T06:06:04.620Z,61.94
2023-05-21T06:11:08.028Z,62.89
2023-05-21T06:16:10.097Z,60.69
2023-05-21T06:21:12.650Z,61.18
2023-05-21T06:26:15.008Z,62.85
2023-05-21T06:31:17.002Z,63.47
2023-05-21T06:36:19.684Z,63.58
2023-05-21T06:41:21.625Z,64.09
2023-05-21T06:46:31.264Z,64.25
2023-05-21T06:51:36.053Z,64.01
2023-05-21T06:56:38.463Z,65.41
2023-05-21T07:01:42.563Z,64.74
2023-05-21T07:06:44.805Z,64.96
2023-05-21T07:11:47.114Z,65.11
2023-05-21T07:16:51.274Z,65.18
2023-05-21T07:21:53.068Z,65.07
2023-05-21T07:26:55.414Z,64.01
2023-05-21T07:31:57.426Z,63.46
2023-05-21T07:36:59.369Z,62.99
2023-05-21T07:42:02.515Z,61.39
2023-05-21T07:47:04.740Z,61.31
2023-05-21T07:52:07.318Z,59.00
2023-05-21T07:57:09.127Z,58.31
2023-05-21T08:02:24.911Z,58.09
2023-05-21T08:07:27.651Z,57.60
2023-05-21T08:12:29.549Z,57.05
2023-05-21T08:17:31.532Z,57.46
2023-05-21T08:22:33.239Z,57.43
2023-05-21T08:27:34.968Z,57.34
2023-05-21T08:32:36.785Z,57.93
2023-05-21T08:37:38.632Z,57.95
2023-05-21T08:42:49.637Z,56.10
2023-05-21T08:48:17.007Z,55.22
2023-05-21T08:53:27.339Z,56.98
2023-05-21T08:58:33.660Z,56.76
2023-05-21T09:03:39.399Z,54.78
2023-05-21T09:08:45.544Z,54.05
2023-05-21T09:14:01.523Z,53.78
2023-05-21T09:19:13.729Z,53.19
2023-05-21T09:24:18.591Z,53.11
2023-05-21T09:29:21.032Z,54.75
2023-05-21T09:34:25.170Z,54.17
2023-05-21T09:39:30.118Z,54.71
2023-05-21T09:44:35.735Z,53.12
2023-05-21T09:49:38.401Z,52.43
2023-05-21T09:54:40.683Z,50.92
2023-05-21T09:59:42.444Z,50.92
2023-05-21T10:04:45.045Z,51.57
2023-05-21T10:09:48.758Z,51.27
2023-05-21T10:15:08.760Z,51.60
2023-05-21T10:20:11.294Z,50.81
2023-05-21T10:25:13.258Z,51.16
2023-05-21T10:30:15.360Z,49.64
2023-05-21T10:35:17.813Z,48.88
2023-05-21T10:40:19.957Z,48.50
2023-05-21T10:45:43.164Z,49.13
2023-05-21T10:50:56.833Z,53.43
2023-05-21T10:56:22.093Z,51.85
2023-05-21T11:01:28.117Z,49.30
2023-05-21T11:06:30.089Z,47.39
2023-05-21T11:11:42.978Z,47.51
2023-05-21T11:16:45.967Z,46.67
2023-05-21T11:21:51.381Z,46.46
2023-05-21T11:26:58.535Z,44.62
2023-05-21T11:32:05.531Z,44.44
2023-05-21T11:37:20.799Z,43.63
2023-05-21T11:42:33.933Z,43.57
2023-05-21T11:47:35.981Z,43.43
2023-05-21T11:52:38.240Z,43.93
2023-05-21T11:57:42.930Z,42.71
2023-05-21T12:02:53.319Z,42.49
2023-05-21T12:07:56.849Z,43.01
2023-05-21T12:12:58.731Z,43.62
2023-05-21T12:18:01.344Z,45.36
2023-05-21T12:23:03.095Z,45.93
2023-05-21T12:28:05.429Z,45.82
2023-05-21T12:33:07.206Z,46.78
2023-05-21T12:38:09.799Z,47.50
2023-05-21T12:43:11.734Z,47.90
2023-05-21T12:48:13.389Z,47.79
2023-05-21T12:53:15.120Z,46.68
2023-05-21T12:58:22.085Z,46.74
2023-05-21T13:03:23.853Z,45.58
2023-05-21T13:08:25.758Z,45.02
2023-05-21T13:13:27.506Z,45.95
2023-05-21T13:18:29.264Z,47.07
2023-05-21T13:23:31.057Z,49.04
2023-05-21T13:28:32.936Z,49.85
2023-05-21T13:33:34.721Z,49.09
2023-05-21T13:38:36.480Z,49.67
2023-05-21T13:43:38.176Z,50.07
2023-05-21T13:48:40.334Z,50.45
2023-05-21T13:53:42.094Z,51.75
2023-05-21T13:58:43.872Z,53.05
2023-05-21T14:03:45.697Z,48.84
2023-05-21T14:08:47.803Z,44.25
2023-05-21T14:13:49.547Z,44.91
2023-05-21T14:18:51.415Z,45.29
2023-05-21T14:23:53.780Z,45.15
2023-05-21T14:28:55.846Z,44.85
2023-05-21T14:33:57.681Z,44.97
2023-05-21T14:38:59.519Z,44.36
2023-05-21T14:44:01.281Z,43.58
2023-05-21T14:49:03.782Z,43.76
2023-05-21T14:54:05.530Z,43.06
2023-05-21T14:59:07.284Z,44.03
2023-05-21T15:04:09.171Z,44.72
2023-05-21T15:09:11.357Z,46.23
2023-05-21T15:14:13.081Z,46.25
2023-05-21T15:19:14.866Z,47.18
2023-05-21T15:24:16.684Z,47.59
2023-05-21T15:29:18.368Z,48.42
2023-05-21T15:34:20.174Z,48.87
2023-05-21T15:39:22.021Z,48.59
2023-05-21T15:44:25.032Z,49.12
2023-05-21T15:49:26.754Z,48.17
2023-05-21T15:54:28.649Z,47.89
2023-05-21T15:59:30.400Z,46.63
2023-05-21T16:04:33.887Z,46.90
2023-05-21T16:09:37.925Z,46.07
2023-05-21T16:14:39.601Z,45.90
2023-05-21T16:19:41.301Z,45.75
2023-05-21T16:24:43.007Z,45.86
2023-05-21T16:29:44.841Z,46.15
2023-05-21T16:34:46.544Z,46.50
2023-05-21T16:39:48.284Z,46.85
2023-05-21T16:44:49.940Z,46.47
2023-05-21T16:49:51.868Z,46.84
2023-05-21T16:54:54.688Z,46.91
2023-05-21T16:59:56.424Z,46.25
2023-05-21T17:04:58.192Z,44.75
2023-05-21T17:10:00.308Z,44.90
2023-05-21T17:15:02.131Z,45.55
2023-05-21T17:20:04.358Z,45.76
2023-05-21T17:25:06.662Z,46.32
2023-05-21T17:30:10.221Z,46.93
2023-05-21T17:35:11.899Z,47.48
2023-05-21T17:40:13.722Z,48.03
2023-05-21T17:45:15.523Z,47.99
2023-05-21T17:50:17.300Z,47.96
2023-05-21T17:55:19.191Z,48.17
2023-05-21T18:00:21.218Z,48.25
2023-05-21T18:05:22.957Z,48.74
2023-05-21T18:10:24.915Z,49.50
2023-05-21T18:15:26.648Z,49.96
2023-05-21T18:20:28.400Z,50.62
2023-05-21T18:25:30.063Z,51.18
2023-05-21T18:30:31.838Z,51.95
2023-05-21T18:35:33.654Z,52.49
2023-05-21T18:40:37.085Z,53.01
2023-05-21T18:45:39.017Z,53.04
2023-05-21T18:50:40.743Z,53.36
2023-05-21T18:55:42.416Z,53.50
2023-05-21T19:00:44.123Z,53.35
2023-05-21T19:05:45.885Z,53.62
2023-05-21T19:10:47.656Z,53.42
2023-05-21T19:15:49.408Z,53.83
2023-05-21T19:20:51.105Z,53.53
2023-05-21T19:25:52.848Z,54.06
2023-05-21T19:30:54.558Z,54.15
2023-05-21T19:35:56.272Z,54.42
2023-05-21T19:40:57.950Z,55.08
2023-05-21T19:45:59.769Z,55.25
2023-05-21T19:51:02.069Z,55.56
2023-05-21T19:56:03.791Z,56.25
2023-05-21T20:01:06.154Z,56.58
2023-05-21T20:06:07.969Z,56.65
2023-05-21T20:11:09.616Z,57.52
2023-05-21T20:16:12.662Z,57.76
2023-05-21T20:21:17.456Z,58.19
2023-05-21T20:26:19.252Z,58.31
2023-05-21T20:31:21.725Z,58.97
2023-05-21T20:36:23.879Z,59.28
2023-05-21T20:41:25.634Z,59.93
2023-05-21T20:46:28.384Z,60.30
2023-05-21T20:51:30.938Z,61.10
2023-05-21T20:56:42.209Z,61.36
2023-05-21T21:01:44.950Z,62.51
2023-05-21T21:06:46.831Z,63.41
2023-05-21T21:11:48.875Z,64.03
2023-05-21T21:16:52.081Z,64.68
2023-05-21T21:21:53.884Z,64.84
2023-05-21T21:26:55.925Z,65.33
2023-05-21T21:31:57.596Z,66.68
2023-05-21T21:36:59.256Z,67.37
2023-05-21T21:42:01.069Z,68.10
2023-05-21T21:47:02.778Z,68.30
2023-05-21T21:52:04.686Z,68.69
2023-05-21T21:57:06.483Z,69.19
2023-05-21T22:02:08.218Z,69.42
2023-05-21T22:07:10.984Z,69.86
2023-05-21T22:12:13.326Z,70.40
2023-05-21T22:17:17.882Z,70.56
2023-05-21T22:22:19.570Z,70.64
2023-05-21T22:27:21.306Z,71.08
2023-05-21T22:32:23.015Z,72.42
2023-05-21T22:37:26.135Z,72.62
2023-05-21T22:42:27.875Z,72.31
2023-05-21T22:47:29.990Z,72.53
2023-05-21T22:52:31.976Z,73.27
2023-05-21T22:57:33.746Z,73.93
2023-05-21T23:02:35.414Z,74.27
2023-05-21T23:07:37.108Z,75.01
2023-05-21T23:12:39.191Z,75.12
2023-05-21T23:17:41.083Z,75.70
2023-05-21T23:22:42.859Z,76.05
2023-05-21T23:27:44.962Z,76.62
2023-05-21T23:32:46.794Z,77.03
2023-05-21T23:37:48.623Z,77.03
2023-05-21T23:42:50.277Z,77.81
2023-05-21T23:47:52.650Z,78.16
2023-05-21T23:52:54.433Z,78.25
2023-05-21T23:57:56.089Z,78.34
